Time;durP1;ratioP1;P1;durP2;ratioP2;P2;SDS_P1;SDS_P2;PMS_P1;PMS_P2;Temp;Humidity;BMP_temperature;BMP_pressure;BME280_temperature;BME280_humidity;BME280_pressure;Samples;Min_cycle;Max_cycle;Signal;HPM_P1;HPM_P2
2023/01/01 00:01:47;;;;;;;;;;;;;;;;;;4677205;28;20319;-65
2023/01/01 00:04:13;;;;;;;;;;;;;;;;;;4677794;28;20739;-66
2023/01/01 00:06:39;;;;;;;;;;;;;;;;;;4678448;28;20365;-65
2023/01/01 00:11:50;;;;;;;;;;;;;;;;;;4677425;28;20293;-66
2023/01/01 00:14:15;;;;;;;;;;;;;;;;;;4676563;28;20543;-66
2023/01/01 00:16:41;;;;;;;;;;;;;;;;;;4678103;28;20898;-66
2023/01/01 00:19:07;;;;;;;;;;;;;;;;;;4677435;28;20277;-67
2023/01/01 00:21:33;;;;;;;;;;;;;;;;;;4684073;28;20282;-67
2023/01/01 00:23:59;;;;;;;;;;;;;;;;;;4684281;28;20243;-66
2023/01/01 00:26:25;;;;;;;;;;;;;;;;;;4681112;28;20716;-66
2023/01/01 00:28:51;;;;;;;;;;;;;;;;;;4679695;28;20280;-66
2023/01/01 00:31:17;;;;;;;;;;;;;;;;;;4679975;28;20241;-67
2023/01/01 00:33:43;;;;;;;;;;;;;;;;;;4681934;28;20258;-66
2023/01/01 00:36:08;;;;;;;;;;;;;;;;;;4676959;28;20302;-64
2023/01/01 00:38:34;;;;;;;;;;;;;;;;;;4681457;28;20243;-65
2023/01/01 00:41:00;;;;;;;;;;;;;;;;;;4680145;28;20347;-65
2023/01/01 00:43:26;;;;;;;;;;;;;;;;;;4679858;28;20271;-66
2023/01/01 00:45:52;;;;;;;;;;;;;;;;;;4676478;28;20314;-65
2023/01/01 00:48:18;;;;;;;;;;;;;;;;;;4681021;28;20349;-66
2023/01/01 00:50:44;;;;;;;;;;;;;;;;;;4681812;28;20282;-66
2023/01/01 00:53:10;;;;;;;;;;;;;;;;;;4681044;28;20261;-65
2023/01/01 00:55:36;;;;;;;;;;;;;;;;;;4679577;28;20385;-66
2023/01/01 00:58:02;;;;;;;;;;;;;;;;;;4679161;28;20272;-66
2023/01/01 01:00:28;;;;;;;;;;;;;;;;;;4678995;28;20266;-66
2023/01/01 01:02:54;;;;;;;;;;;;;;;;;;4681752;28;20302;-66
2023/01/01 01:05:19;;;;;;;;;;;;;;;;;;4681928;28;20338;-65
2023/01/01 01:07:45;;;;;;;;;;;;;;;;;;4680572;28;20259;-66
2023/01/01 01:10:11;;;;;;;;;;;;;;;;;;4679230;28;20255;-66
2023/01/01 01:12:37;;;;;;;;;;;;;;;;;;4678433;28;20343;-65
2023/01/01 01:15:03;;;;;;;;;;;;;;;;;;4680127;28;20250;-65
2023/01/01 01:17:29;;;;;;;;;;;;;;;;;;4680260;28;20342;-64
2023/01/01 01:19:55;;;;;;;;;;;;;;;;;;4679930;28;20304;-65
2023/01/01 01:22:21;;;;;;;;;;;;;;;;;;4681799;28;20271;-65
2023/01/01 01:24:47;;;;;;;;;;;;;;;;;;4680941;28;20243;-65
2023/01/01 01:27:12;;;;;;;;;;;;;;;;;;4679226;28;20245;-65
2023/01/01 01:29:38;;;;;;;;;;;;;;;;;;4679988;28;20313;-65
2023/01/01 01:32:04;;;;;;;;;;;;;;;;;;4678038;28;20274;-65
2023/01/01 01:34:30;;;;;;;;;;;;;;;;;;4680749;28;20665;-66
2023/01/01 01:36:56;;;;;;;;;;;;;;;;;;4681876;28;20364;-66
2023/01/01 01:39:22;;;;;;;;;;;;;;;;;;4679987;28;20315;-65
2023/01/01 01:41:48;;;;;;;;;;;;;;;;;;4681033;28;20247;-65
2023/01/01 01:44:14;;;;;;;;;;;;;;;;;;4682177;28;20242;-65
2023/01/01 01:46:40;;;;;;;;;;;;;;;;;;4683478;28;20267;-66
2023/01/01 01:49:05;;;;;;;;;;;;;;;;;;4682742;28;20745;-65
2023/01/01 01:51:31;;;;;;;;;;;;;;;;;;4683377;28;20314;-65
2023/01/01 01:53:57;;;;;;;;;;;;;;;;;;4683455;28;20898;-66
2023/01/01 01:56:23;;;;;;;;;;;;;;;;;;4683504;28;20368;-65
2023/01/01 01:58:49;;;;;;;;;;;;;;;;;;4684349;28;20281;-65
2023/01/01 02:01:15;;;;;;;;;;;;;;;;;;4683549;28;20234;-66
2023/01/01 02:03:42;;;;;;;;;;;;;;;;;;4683800;28;20639;-66
2023/01/01 02:06:08;;;;;;;;;;;;;;;;;;4682926;28;20856;-65
2023/01/01 02:08:34;;;;;;;;;;;;;;;;;;4684156;28;20264;-65
2023/01/01 02:11:00;;;;;;;;;;;;;;;;;;4683924;28;20791;-66
2023/01/01 02:13:26;;;;;;;;;;;;;;;;;;4683071;28;20342;-66
2023/01/01 02:15:52;;;;;;;;;;;;;;;;;;4683370;28;20294;-66
2023/01/01 02:18:18;;;;;;;;;;;;;;;;;;4683031;28;20252;-66
2023/01/01 02:20:44;;;;;;;;;;;;;;;;;;4683865;28;20282;-66
2023/01/01 02:23:10;;;;;;;;;;;;;;;;;;4682944;28;20266;-66
2023/01/01 02:25:36;;;;;;;;;;;;;;;;;;4680991;28;20230;-65
2023/01/01 02:28:01;;;;;;;;;;;;;;;;;;4678037;28;21014;-68
2023/01/01 02:30:27;;;;;;;;;;;;;;;;;;4679263;28;20260;-66
2023/01/01 02:32:53;;;;;;;;;;;;;;;;;;4678215;28;20230;-65
2023/01/01 02:35:34;;;;;;;;;;;;;;;;;;4678857;28;20285;-66
2023/01/01 02:38:00;;;;;;;;;;;;;;;;;;4677703;28;20304;-66
2023/01/01 02:40:26;;;;;;;;;;;;;;;;;;4678076;28;20309;-66
2023/01/01 02:42:52;;;;;;;;;;;;;;;;;;4677730;28;20789;-67
2023/01/01 02:45:18;;;;;;;;;;;;;;;;;;4677846;28;20405;-67
2023/01/01 02:47:44;;;;;;;;;;;;;;;;;;4677239;28;20293;-66
2023/01/01 02:50:10;;;;;;;;;;;;;;;;;;4675987;28;20235;-68
2023/01/01 02:52:36;;;;;;;;;;;;;;;;;;4675037;28;20280;-68
2023/01/01 02:55:01;;;;;;;;;;;;;;;;;;4673930;28;20350;-65
2023/01/01 02:57:27;;;;;;;;;;;;;;;;;;4674111;28;20670;-66
2023/01/01 03:02:38;;;;;;;;;;;;;;;;;;4669880;28;20632;-65
2023/01/01 03:05:04;;;;;;;;;;;;;;;;;;4673044;28;20232;-65
2023/01/01 03:07:30;;;;;;;;;;;;;;;;;;4673760;28;20223;-65
2023/01/01 03:09:56;;;;;;;;;;;;;;;;;;4674081;28;20360;-65
2023/01/01 03:12:22;;;;;;;;;;;;;;;;;;4672954;28;20252;-65
2023/01/01 03:14:48;;;;;;;;;;;;;;;;;;4673202;28;20313;-66
2023/01/01 03:17:13;;;;;;;;;;;;;;;;;;4673924;28;20354;-65
2023/01/01 03:19:39;;;;;;;;;;;;;;;;;;4672973;28;20243;-65
2023/01/01 03:22:05;;;;;;;;;;;;;;;;;;4674211;28;20228;-66
2023/01/01 03:24:31;;;;;;;;;;;;;;;;;;4669391;28;20384;-65
2023/01/01 03:26:57;;;;;;;;;;;;;;;;;;4675356;28;20757;-66
2023/01/01 03:29:24;;;;;;;;;;;;;;;;;;4676050;28;20311;-66
2023/01/01 03:31:49;;;;;;;;;;;;;;;;;;4675374;28;20716;-65
2023/01/01 03:34:15;;;;;;;;;;;;;;;;;;4676949;28;20238;-65
2023/01/01 03:36:41;;;;;;;;;;;;;;;;;;4676898;28;20327;-65
2023/01/01 03:39:07;;;;;;;;;;;;;;;;;;4676642;28;20294;-65
2023/01/01 03:41:33;;;;;;;;;;;;;;;;;;4677138;28;20292;-65
2023/01/01 03:43:59;;;;;;;;;;;;;;;;;;4677455;28;20333;-65
2023/01/01 03:46:25;;;;;;;;;;;;;;;;;;4680284;28;20268;-65
2023/01/01 03:48:56;;;;;;;;;;;;;;;;;;4679452;28;20428;-65
2023/01/01 03:51:22;;;;;;;;;;;;;;;;;;4679971;28;20801;-66
2023/01/01 03:53:48;;;;;;;;;;;;;;;;;;4679884;28;20382;-65
2023/01/01 03:56:14;;;;;;;;;;;;;;;;;;4678491;28;20325;-64
2023/01/01 03:58:40;;;;;;;;;;;;;;;;;;4679109;28;20680;-65
2023/01/01 04:01:06;;;;;;;;;;;;;;;;;;4678922;28;20322;-65
2023/01/01 04:03:32;;;;;;;;;;;;;;;;;;4678178;28;20274;-65
2023/01/01 04:05:58;;;;;;;;;;;;;;;;;;4676909;28;20833;-65
2023/01/01 04:08:24;;;;;;;;;;;;;;;;;;4676309;28;20717;-65
2023/01/01 04:10:50;;;;;;;;;;;;;;;;;;4676288;28;20291;-64
2023/01/01 04:13:16;;;;;;;;;;;;;;;;;;4676265;28;21001;-65
2023/01/01 04:15:42;;;;;;;;;;;;;;;;;;4674326;28;20268;-64
2023/01/01 04:18:08;;;;;;;;;;;;;;;;;;4674041;28;20284;-66
2023/01/01 04:20:34;;;;;;;;;;;;;;;;;;4674740;28;20279;-65
2023/01/01 04:22:59;;;;;;;;;;;;;;;;;;4675592;28;20375;-65
2023/01/01 04:25:25;;;;;;;;;;;;;;;;;;4675296;28;20294;-65
2023/01/01 04:27:51;;;;;;;;;;;;;;;;;;4677129;28;20299;-65
2023/01/01 04:30:17;;;;;;;;;;;;;;;;;;4676442;28;20293;-65
2023/01/01 04:32:43;;;;;;;;;;;;;;;;;;4676823;28;20241;-65
2023/01/01 04:35:10;;;;;;;;;;;;;;;;;;4675484;28;20272;-65
2023/01/01 04:37:36;;;;;;;;;;;;;;;;;;4677277;28;20279;-65
2023/01/01 04:40:02;;;;;;;;;;;;;;;;;;4676316;28;20319;-66
2023/01/01 04:42:28;;;;;;;;;;;;;;;;;;4677269;28;20865;-68
2023/01/01 04:44:54;;;;;;;;;;;;;;;;;;4677206;28;20230;-66
2023/01/01 04:47:21;;;;;;;;;;;;;;;;;;4674354;28;20266;-65
2023/01/01 04:49:46;;;;;;;;;;;;;;;;;;4676105;28;20503;-66
2023/01/01 04:52:12;;;;;;;;;;;;;;;;;;4675522;28;20247;-65
2023/01/01 04:54:38;;;;;;;;;;;;;;;;;;4676673;28;20283;-66
2023/01/01 04:57:04;;;;;;;;;;;;;;;;;;4675789;28;20658;-65
2023/01/01 04:59:30;;;;;;;;;;;;;;;;;;4676082;28;20278;-65
2023/01/01 05:01:56;;;;;;;;;;;;;;;;;;4673919;28;20238;-65
2023/01/01 05:04:22;;;;;;;;;;;;;;;;;;4677139;28;20247;-65
2023/01/01 05:06:48;;;;;;;;;;;;;;;;;;4680716;28;20238;-66
2023/01/01 05:09:13;;;;;;;;;;;;;;;;;;4680068;28;20283;-65
2023/01/01 05:11:39;;;;;;;;;;;;;;;;;;4679736;28;20333;-66
2023/01/01 05:14:05;;;;;;;;;;;;;;;;;;4678927;28;20363;-66
2023/01/01 05:16:31;;;;;;;;;;;;;;;;;;4678258;28;20305;-65
2023/01/01 05:18:57;;;;;;;;;;;;;;;;;;4677510;28;20300;-65
2023/01/01 05:21:23;;;;;;;;;;;;;;;;;;4677645;28;20300;-66
2023/01/01 05:23:49;;;;;;;;;;;;;;;;;;4679003;28;20288;-67
2023/01/01 05:26:15;;;;;;;;;;;;;;;;;;4679325;28;20268;-65
2023/01/01 05:28:40;;;;;;;;;;;;;;;;;;4680359;28;20326;-65
2023/01/01 05:31:06;;;;;;;;;;;;;;;;;;4679737;28;20721;-66
2023/01/01 05:33:33;;;;;;;;;;;;;;;;;;4679581;28;20660;-66
2023/01/01 05:35:59;;;;;;;;;;;;;;;;;;4680051;28;20272;-65
2023/01/01 05:38:25;;;;;;;;;;;;;;;;;;4679391;28;20296;-65
2023/01/01 05:40:50;;;;;;;;;;;;;;;;;;4673655;28;20239;-66
2023/01/01 05:43:16;;;;;;;;;;;;;;;;;;4679040;28;20849;-66
2023/01/01 05:45:43;;;;;;;;;;;;;;;;;;4678081;28;20374;-66
2023/01/01 05:48:08;;;;;;;;;;;;;;;;;;4677317;28;20688;-66
2023/01/01 05:50:34;;;;;;;;;;;;;;;;;;4677660;28;20250;-66
2023/01/01 05:53:00;;;;;;;;;;;;;;;;;;4678071;28;20293;-66
2023/01/01 05:55:26;;;;;;;;;;;;;;;;;;4677295;28;20381;-65
2023/01/01 05:57:52;;;;;;;;;;;;;;;;;;4676822;28;20232;-65
2023/01/01 06:00:18;;;;;;;;;;;;;;;;;;4677151;28;20227;-65
2023/01/01 06:02:44;;;;;;;;;;;;;;;;;;4675983;28;20707;-65
2023/01/01 06:05:10;;;;;;;;;;;;;;;;;;4675523;28;20781;-66
2023/01/01 06:07:36;;;;;;;;;;;;;;;;;;4674699;28;20387;-65
2023/01/01 06:10:01;;;;;;;;;;;;;;;;;;4675648;28;20758;-65
2023/01/01 06:12:27;;;;;;;;;;;;;;;;;;4676394;28;20315;-66
2023/01/01 06:14:53;;;;;;;;;;;;;;;;;;4676895;28;20746;-65
2023/01/01 06:17:19;;;;;;;;;;;;;;;;;;4676533;28;20227;-65
2023/01/01 06:19:45;;;;;;;;;;;;;;;;;;4676673;28;20962;-65
2023/01/01 06:22:11;;;;;;;;;;;;;;;;;;4676962;28;20234;-65
2023/01/01 06:24:37;;;;;;;;;;;;;;;;;;4677329;28;21038;-66
2023/01/01 06:27:03;;;;;;;;;;;;;;;;;;4677949;28;20285;-66
2023/01/01 06:29:28;;;;;;;;;;;;;;;;;;4677473;28;20653;-66
2023/01/01 06:31:54;;;;;;;;;;;;;;;;;;4678065;28;20282;-66
2023/01/01 06:34:20;;;;;;;;;;;;;;;;;;4677019;28;20778;-64
2023/01/01 06:36:46;;;;;;;;;;;;;;;;;;4676047;28;20305;-66
2023/01/01 06:39:12;;;;;;;;;;;;;;;;;;4676327;28;20235;-66
2023/01/01 06:41:38;;;;;;;;;;;;;;;;;;4676863;28;20707;-66
2023/01/01 06:44:04;;;;;;;;;;;;;;;;;;4677402;28;20318;-66
2023/01/01 06:46:30;;;;;;;;;;;;;;;;;;4675896;28;20325;-66
2023/01/01 06:48:56;;;;;;;;;;;;;;;;;;4674827;28;20420;-66
2023/01/01 06:51:22;;;;;;;;;;;;;;;;;;4675708;28;20232;-66
2023/01/01 06:53:47;;;;;;;;;;;;;;;;;;4675126;28;20290;-66
2023/01/01 06:56:13;;;;;;;;;;;;;;;;;;4674576;28;20806;-66
2023/01/01 06:58:39;;;;;;;;;;;;;;;;;;4674849;28;20274;-66
2023/01/01 07:01:05;;;;;;;;;;;;;;;;;;4674927;28;20832;-66
2023/01/01 07:03:31;;;;;;;;;;;;;;;;;;4674805;28;20265;-65
2023/01/01 07:05:57;;;;;;;;;;;;;;;;;;4673409;28;20266;-65
2023/01/01 07:08:23;;;;;;;;;;;;;;;;;;4674560;28;20276;-66
2023/01/01 07:10:49;;;;;;;;;;;;;;;;;;4676516;28;20236;-66
2023/01/01 07:13:15;;;;;;;;;;;;;;;;;;4674973;28;20279;-66
2023/01/01 07:15:43;;;;;;;;;;;;;;;;;;4673718;28;20291;-66
2023/01/01 07:18:08;;;;;;;;;;;;;;;;;;4672637;28;20280;-66
2023/01/01 07:20:34;;;;;;;;;;;;;;;;;;4675290;28;20259;-66
2023/01/01 07:23:03;;;;;;;;;;;;;;;;;;4675096;28;20254;-65
2023/01/01 07:25:29;;;;;;;;;;;;;;;;;;4675096;28;20254;-66
2023/01/01 07:27:55;;;;;;;;;;;;;;;;;;4677927;28;20324;-66
2023/01/01 07:30:21;;;;;;;;;;;;;;;;;;4677981;28;20225;-66
2023/01/01 07:32:47;;;;;;;;;;;;;;;;;;4678631;28;20313;-66
2023/01/01 07:35:13;;;;;;;;;;;;;;;;;;4679256;28;20273;-65
2023/01/01 07:37:39;;;;;;;;;;;;;;;;;;4679157;28;20310;-66
2023/01/01 07:40:05;;;;;;;;;;;;;;;;;;4680009;28;20350;-65
2023/01/01 07:42:30;;;;;;;;;;;;;;;;;;4677472;28;20286;-66
2023/01/01 07:44:56;;;;;;;;;;;;;;;;;;4679291;28;20279;-66
2023/01/01 07:47:22;;;;;;;;;;;;;;;;;;4678663;28;20290;-66
2023/01/01 07:49:48;;;;;;;;;;;;;;;;;;4678952;28;20244;-66
2023/01/01 07:52:14;;;;;;;;;;;;;;;;;;4673075;28;20278;-66
2023/01/01 07:54:40;;;;;;;;;;;;;;;;;;4677532;28;20392;-66
2023/01/01 07:57:06;;;;;;;;;;;;;;;;;;4676132;28;20241;-66
2023/01/01 07:59:32;;;;;;;;;;;;;;;;;;4675459;28;20327;-66
2023/01/01 08:01:58;;;;;;;;;;;;;;;;;;4675311;28;20389;-66
2023/01/01 08:04:25;;;;;;;;;;;;;;;;;;4675850;28;20237;-65
2023/01/01 08:06:51;;;;;;;;;;;;;;;;;;4677330;28;20264;-66
2023/01/01 08:09:17;;;;;;;;;;;;;;;;;;4676501;28;20236;-66
2023/01/01 08:11:43;;;;;;;;;;;;;;;;;;4675192;28;20326;-68
2023/01/01 08:14:09;;;;;;;;;;;;;;;;;;4676019;28;20246;-65
2023/01/01 08:16:34;;;;;;;;;;;;;;;;;;4675153;28;20332;-66
2023/01/01 08:19:00;;;;;;;;;;;;;;;;;;4675284;28;20648;-65
2023/01/01 08:21:26;;;;;;;;;;;;;;;;;;4676416;28;20258;-65
2023/01/01 08:23:52;;;;;;;;;;;;;;;;;;4674768;28;20756;-66
2023/01/01 08:26:18;;;;;;;;;;;;;;;;;;4676586;28;20314;-65
2023/01/01 08:28:44;;;;;;;;;;;;;;;;;;4674318;28;21323;-65
2023/01/01 08:31:10;;;;;;;;;;;;;;;;;;4671952;28;20277;-64
2023/01/01 08:33:36;;;;;;;;;;;;;;;;;;4691361;28;20717;-60
2023/01/01 08:36:01;;;;;;;;;;;;;;;;;;4684266;28;20227;-60
2023/01/01 08:38:27;;;;;;;;;;;;;;;;;;4688762;28;20907;-59
2023/01/01 08:40:53;;;;;;;;;;;;;;;;;;4686171;28;20269;-60
2023/01/01 08:43:19;;;;;;;;;;;;;;;;;;4686867;28;20233;-59
2023/01/01 08:45:45;;;;;;;;;;;;;;;;;;4686611;28;20245;-59
2023/01/01 08:48:11;;;;;;;;;;;;;;;;;;4687573;28;20264;-59
2023/01/01 08:50:37;;;;;;;;;;;;;;;;;;4687909;28;20265;-60
2023/01/01 08:53:03;;;;;;;;;;;;;;;;;;4687571;28;20295;-60
2023/01/01 08:55:30;;;;;;;;;;;;;;;;;;4686928;28;20759;-59
2023/01/01 08:57:55;;;;;;;;;;;;;;;;;;4687680;28;20611;-59
2023/01/01 09:00:21;;;;;;;;;;;;;;;;;;4691881;28;20746;-60
2023/01/01 09:02:47;;;;;;;;;;;;;;;;;;4689546;28;20293;-59
2023/01/01 09:05:13;;;;;;;;;;;;;;;;;;4690312;28;20261;-60
2023/01/01 09:07:39;;;;;;;;;;;;;;;;;;4688376;28;20280;-60
2023/01/01 09:10:05;;;;;;;;;;;;;;;;;;4688893;28;20399;-59
2023/01/01 09:12:31;;;;;;;;;;;;;;;;;;4686209;28;20235;-59
2023/01/01 09:14:57;;;;;;;;;;;;;;;;;;4688576;28;20287;-59
2023/01/01 09:17:23;;;;;;;;;;;;;;;;;;4691851;28;20646;-60
2023/01/01 09:19:48;;;;;;;;;;;;;;;;;;4691004;28;20218;-59
2023/01/01 09:22:14;;;;;;;;;;;;;;;;;;4689096;28;20314;-59
2023/01/01 09:24:40;;;;;;;;;;;;;;;;;;4685923;28;20220;-59
2023/01/01 09:27:06;;;;;;;;;;;;;;;;;;4688649;28;20232;-60
2023/01/01 09:29:32;;;;;;;;;;;;;;;;;;4688404;28;20296;-59
2023/01/01 09:31:58;;;;;;;;;;;;;;;;;;4692344;28;20256;-60
2023/01/01 09:34:24;;;;;;;;;;;;;;;;;;4689798;28;20337;-60
2023/01/01 09:36:50;;;;;;;;;;;;;;;;;;4688543;28;20732;-59
2023/01/01 09:39:16;;;;;;;;;;;;;;;;;;4688612;28;20278;-60
2023/01/01 09:41:42;;;;;;;;;;;;;;;;;;4686892;28;20814;-61
2023/01/01 09:44:07;;;;;;;;;;;;;;;;;;4685335;28;20833;-63
2023/01/01 09:46:35;;;;;;;;;;;;;;;;;;4680108;28;20283;-64
2023/01/01 09:49:01;;;;;;;;;;;;;;;;;;4681533;28;20265;-62
2023/01/01 09:51:27;;;;;;;;;;;;;;;;;;4683710;28;20267;-64
2023/01/01 09:53:53;;;;;;;;;;;;;;;;;;4681966;28;20243;-64
2023/01/01 09:56:19;;;;;;;;;;;;;;;;;;4678245;28;20228;-64
2023/01/01 09:58:45;;;;;;;;;;;;;;;;;;4678702;28;20248;-64
2023/01/01 10:01:11;;;;;;;;;;;;;;;;;;4680581;28;20227;-64
2023/01/01 10:03:37;;;;;;;;;;;;;;;;;;4681795;28;20622;-65
2023/01/01 10:06:03;;;;;;;;;;;;;;;;;;4680734;28;20393;-65
2023/01/01 10:08:28;;;;;;;;;;;;;;;;;;4676600;28;20241;-62
2023/01/01 10:10:54;;;;;;;;;;;;;;;;;;4680387;28;20234;-65
2023/01/01 10:13:20;;;;;;;;;;;;;;;;;;4683639;28;20339;-63
2023/01/01 10:15:46;;;;;;;;;;;;;;;;;;4684299;28;20268;-65
2023/01/01 10:18:12;;;;;;;;;;;;;;;;;;4683996;28;20401;-64
2023/01/01 10:20:38;;;;;;;;;;;;;;;;;;4686234;28;20418;-64
2023/01/01 10:23:04;;;;;;;;;;;;;;;;;;4685306;28;20269;-64
2023/01/01 10:25:30;;;;;;;;;;;;;;;;;;4687722;28;20285;-64
2023/01/01 10:27:56;;;;;;;;;;;;;;;;;;4687626;28;20318;-65
2023/01/01 10:30:22;;;;;;;;;;;;;;;;;;4687989;28;20272;-65
2023/01/01 10:32:47;;;;;;;;;;;;;;;;;;4686959;28;21121;-64
2023/01/01 10:35:13;;;;;;;;;;;;;;;;;;4686298;28;20261;-64
2023/01/01 10:37:39;;;;;;;;;;;;;;;;;;4687203;28;20353;-63
2023/01/01 10:40:05;;;;;;;;;;;;;;;;;;4688354;28;20298;-64
2023/01/01 10:42:31;;;;;;;;;;;;;;;;;;4688725;28;20325;-65
2023/01/01 10:45:01;;;;;;;;;;;;;;;;;;4686211;28;20256;-64
2023/01/01 10:47:27;;;;;;;;;;;;;;;;;;4686315;28;20589;-64
2023/01/01 10:49:53;;;;;;;;;;;;;;;;;;4681676;28;20393;-64
2023/01/01 10:52:19;;;;;;;;;;;;;;;;;;4678817;28;20268;-64
2023/01/01 10:54:45;;;;;;;;;;;;;;;;;;4684320;28;20253;-62
2023/01/01 10:57:11;;;;;;;;;;;;;;;;;;4685107;28;20638;-63
2023/01/01 10:59:37;;;;;;;;;;;;;;;;;;4684252;28;20304;-64
2023/01/01 11:02:02;;;;;;;;;;;;;;;;;;4681175;28;20262;-63
2023/01/01 11:04:28;;;;;;;;;;;;;;;;;;4681628;28;20289;-63
2023/01/01 11:06:54;;;;;;;;;;;;;;;;;;4684740;28;21120;-63
2023/01/01 11:09:20;;;;;;;;;;;;;;;;;;4680696;28;20479;-64
2023/01/01 11:11:46;;;;;;;;;;;;;;;;;;4683003;28;20706;-61
2023/01/01 11:14:12;;;;;;;;;;;;;;;;;;4683083;28;20254;-64
2023/01/01 11:16:38;;;;;;;;;;;;;;;;;;4678952;28;20340;-64
2023/01/01 11:19:04;;;;;;;;;;;;;;;;;;4675705;28;20228;-64
2023/01/01 11:21:30;;;;;;;;;;;;;;;;;;4674702;28;20279;-64
2023/01/01 11:23:55;;;;;;;;;;;;;;;;;;4677603;28;20296;-64
2023/01/01 11:26:23;;;;;;;;;;;;;;;;;;4675087;28;20300;-64
2023/01/01 11:28:49;;;;;;;;;;;;;;;;;;4672438;28;20371;-64
2023/01/01 11:31:15;;;;;;;;;;;;;;;;;;4676502;28;20306;-66
2023/01/01 11:33:41;;;;;;;;;;;;;;;;;;4678916;28;20769;-64
2023/01/01 11:36:06;;;;;;;;;;;;;;;;;;4673659;28;20430;-66
2023/01/01 11:38:32;;;;;;;;;;;;;;;;;;4675080;28;20701;-65
2023/01/01 11:40:58;;;;;;;;;;;;;;;;;;4674150;28;20245;-65
2023/01/01 11:43:24;;;;;;;;;;;;;;;;;;4675168;28;20259;-64
2023/01/01 11:45:50;;;;;;;;;;;;;;;;;;4675402;28;20231;-64
2023/01/01 11:48:16;;;;;;;;;;;;;;;;;;4676284;28;20344;-64
2023/01/01 11:50:42;;;;;;;;;;;;;;;;;;4676795;28;20715;-65
2023/01/01 11:53:08;;;;;;;;;;;;;;;;;;4676792;28;20349;-65
2023/01/01 11:55:34;;;;;;;;;;;;;;;;;;4679362;28;20241;-63
2023/01/01 11:58:00;;;;;;;;;;;;;;;;;;4677469;28;20291;-65
2023/01/01 12:00:26;;;;;;;;;;;;;;;;;;4676748;28;20292;-65
2023/01/01 12:02:52;;;;;;;;;;;;;;;;;;4676415;28;20769;-64
2023/01/01 12:05:17;;;;;;;;;;;;;;;;;;4671702;28;20321;-63
2023/01/01 12:07:44;;;;;;;;;;;;;;;;;;4670174;28;20692;-64
2023/01/01 12:10:11;;;;;;;;;;;;;;;;;;4673404;28;20240;-65
2023/01/01 12:12:37;;;;;;;;;;;;;;;;;;4669192;28;20405;-65
2023/01/01 12:15:03;;;;;;;;;;;;;;;;;;4668856;28;20353;-64
2023/01/01 12:17:29;;;;;;;;;;;;;;;;;;4668863;28;20243;-65
2023/01/01 12:19:56;;;;;;;;;;;;;;;;;;4663966;28;20250;-64
2023/01/01 12:22:21;;;;;;;;;;;;;;;;;;4666025;28;20338;-64
2023/01/01 12:24:47;;;;;;;;;;;;;;;;;;4667599;28;20241;-64
2023/01/01 12:27:13;;;;;;;;;;;;;;;;;;4671544;28;20709;-65
2023/01/01 12:29:39;;;;;;;;;;;;;;;;;;4672521;28;20273;-64
2023/01/01 12:32:05;;;;;;;;;;;;;;;;;;4665518;28;20383;-64
2023/01/01 12:34:31;;;;;;;;;;;;;;;;;;4665680;28;20284;-64
2023/01/01 12:36:57;;;;;;;;;;;;;;;;;;4668599;28;20838;-63
2023/01/01 12:39:23;;;;;;;;;;;;;;;;;;4676492;28;20232;-64
2023/01/01 12:41:49;;;;;;;;;;;;;;;;;;4670588;28;20794;-65
2023/01/01 12:44:14;;;;;;;;;;;;;;;;;;4675306;28;20338;-63
2023/01/01 12:46:41;;;;;;;;;;;;;;;;;;4673713;28;20395;-64
2023/01/01 12:49:07;;;;;;;;;;;;;;;;;;4673222;28;20737;-63
2023/01/01 12:51:33;;;;;;;;;;;;;;;;;;4672330;28;20236;-66
2023/01/01 12:53:59;;;;;;;;;;;;;;;;;;4670785;28;20324;-65
2023/01/01 12:56:25;;;;;;;;;;;;;;;;;;4673163;28;20277;-65
2023/01/01 12:58:51;;;;;;;;;;;;;;;;;;4677579;28;20342;-64
2023/01/01 13:01:17;;;;;;;;;;;;;;;;;;4675707;28;20241;-64
2023/01/01 13:03:42;;;;;;;;;;;;;;;;;;4674739;28;20277;-64
2023/01/01 13:06:08;;;;;;;;;;;;;;;;;;4670908;28;20721;-64
2023/01/01 13:08:34;;;;;;;;;;;;;;;;;;4666305;28;20267;-63
2023/01/01 13:11:01;;;;;;;;;;;;;;;;;;4672466;28;21086;-64
2023/01/01 13:13:27;;;;;;;;;;;;;;;;;;4674273;28;20307;-63
2023/01/01 13:15:53;;;;;;;;;;;;;;;;;;4673359;28;20246;-64
2023/01/01 13:18:19;;;;;;;;;;;;;;;;;;4676416;28;20849;-64
2023/01/01 13:20:45;;;;;;;;;;;;;;;;;;4676334;28;20232;-64
2023/01/01 13:23:11;;;;;;;;;;;;;;;;;;4678483;28;20340;-62
2023/01/01 13:25:37;;;;;;;;;;;;;;;;;;4677239;28;20240;-64
2023/01/01 13:28:03;;;;;;;;;;;;;;;;;;4679822;28;20877;-63
2023/01/01 13:30:29;;;;;;;;;;;;;;;;;;4679352;28;20303;-64
2023/01/01 13:32:55;;;;;;;;;;;;;;;;;;4675108;28;20242;-64
2023/01/01 13:35:20;;;;;;;;;;;;;;;;;;4671271;28;20225;-64
2023/01/01 13:37:46;;;;;;;;;;;;;;;;;;4677892;28;20293;-64
2023/01/01 13:40:12;;;;;;;;;;;;;;;;;;4677856;28;20303;-63
2023/01/01 13:42:38;;;;;;;;;;;;;;;;;;4677228;28;20278;-64
2023/01/01 13:45:04;;;;;;;;;;;;;;;;;;4676079;28;20234;-64
2023/01/01 13:47:30;;;;;;;;;;;;;;;;;;4674183;28;20770;-64
2023/01/01 13:49:56;;;;;;;;;;;;;;;;;;4672995;28;20690;-64
2023/01/01 13:52:22;;;;;;;;;;;;;;;;;;4669532;28;20257;-65
2023/01/01 13:54:48;;;;;;;;;;;;;;;;;;4671843;28;20713;-64
2023/01/01 13:57:14;;;;;;;;;;;;;;;;;;4670361;28;20656;-63
2023/01/01 13:59:39;;;;;;;;;;;;;;;;;;4672394;28;20239;-64
2023/01/01 14:02:09;;;;;;;;;;;;;;;;;;4670809;28;20324;-63
2023/01/01 14:04:35;;;;;;;;;;;;;;;;;;4675517;28;20279;-63
2023/01/01 14:07:01;;;;;;;;;;;;;;;;;;4670333;28;20305;-64
2023/01/01 14:09:27;;;;;;;;;;;;;;;;;;4674686;28;20355;-64
2023/01/01 14:11:52;;;;;;;;;;;;;;;;;;4677509;28;20823;-65
2023/01/01 14:14:23;;;;;;;;;;;;;;;;;;4681219;28;20285;-63
2023/01/01 14:16:48;;;;;;;;;;;;;;;;;;4680330;28;20231;-65
2023/01/01 14:19:14;;;;;;;;;;;;;;;;;;4679879;28;20719;-63
2023/01/01 14:21:40;;;;;;;;;;;;;;;;;;4681594;28;20364;-65
2023/01/01 14:24:06;;;;;;;;;;;;;;;;;;4680077;28;20424;-64
2023/01/01 14:26:32;;;;;;;;;;;;;;;;;;4680420;28;20347;-65
2023/01/01 14:28:58;;;;;;;;;;;;;;;;;;4677324;28;20318;-65
2023/01/01 14:31:24;;;;;;;;;;;;;;;;;;4677737;28;20236;-64
2023/01/01 14:33:50;;;;;;;;;;;;;;;;;;4676866;28;20293;-62
2023/01/01 14:36:16;;;;;;;;;;;;;;;;;;4677397;28;20771;-63
2023/01/01 14:38:42;;;;;;;;;;;;;;;;;;4677243;28;20289;-66
2023/01/01 14:41:08;;;;;;;;;;;;;;;;;;4675983;28;20817;-65
2023/01/01 14:43:34;;;;;;;;;;;;;;;;;;4674198;28;20322;-65
2023/01/01 14:46:00;;;;;;;;;;;;;;;;;;4674571;28;20325;-64
2023/01/01 14:48:26;;;;;;;;;;;;;;;;;;4674378;28;20352;-63
2023/01/01 14:50:52;;;;;;;;;;;;;;;;;;4675436;28;20657;-63
2023/01/01 14:53:20;;;;;;;;;;;;;;;;;;4676256;28;20591;-64
2023/01/01 14:55:45;;;;;;;;;;;;;;;;;;4678269;28;20297;-64
2023/01/01 14:58:11;;;;;;;;;;;;;;;;;;4677850;28;21021;-64
2023/01/01 15:00:37;;;;;;;;;;;;;;;;;;4675729;28;20280;-64
2023/01/01 15:03:03;;;;;;;;;;;;;;;;;;4678083;28;20883;-64
2023/01/01 15:05:29;;;;;;;;;;;;;;;;;;4680460;28;20322;-63
2023/01/01 15:07:55;;;;;;;;;;;;;;;;;;4680584;28;20233;-64
2023/01/01 15:10:21;;;;;;;;;;;;;;;;;;4681186;28;20328;-64
2023/01/01 15:12:47;;;;;;;;;;;;;;;;;;4680406;28;20715;-64
2023/01/01 15:15:12;;;;;;;;;;;;;;;;;;4679174;28;20297;-64
2023/01/01 15:17:38;;;;;;;;;;;;;;;;;;4679868;28;20443;-64
2023/01/01 15:20:04;;;;;;;;;;;;;;;;;;4680508;28;20230;-65
2023/01/01 15:22:32;;;;;;;;;;;;;;;;;;4677874;28;20643;-63
2023/01/01 15:24:58;;;;;;;;;;;;;;;;;;4679522;28;20334;-63
2023/01/01 15:27:24;;;;;;;;;;;;;;;;;;4679086;28;20284;-64
2023/01/01 15:29:50;;;;;;;;;;;;;;;;;;4678158;28;20265;-64
2023/01/01 15:32:16;;;;;;;;;;;;;;;;;;4678748;28;20239;-63
2023/01/01 15:34:42;;;;;;;;;;;;;;;;;;4678966;28;20427;-63
2023/01/01 15:37:08;;;;;;;;;;;;;;;;;;4676655;28;21031;-62
2023/01/01 15:39:34;;;;;;;;;;;;;;;;;;4679558;28;20406;-63
2023/01/01 15:41:59;;;;;;;;;;;;;;;;;;4681820;28;20284;-64
2023/01/01 15:44:25;;;;;;;;;;;;;;;;;;4682447;28;20240;-63
2023/01/01 15:46:51;;;;;;;;;;;;;;;;;;4682140;28;20274;-63
2023/01/01 15:49:17;;;;;;;;;;;;;;;;;;4680510;28;20705;-62
2023/01/01 15:51:43;;;;;;;;;;;;;;;;;;4678486;28;20271;-65
2023/01/01 15:54:09;;;;;;;;;;;;;;;;;;4677466;28;20343;-64
2023/01/01 15:56:35;;;;;;;;;;;;;;;;;;4679090;28;20301;-64
2023/01/01 15:59:01;;;;;;;;;;;;;;;;;;4677460;28;21049;-65
2023/01/01 16:01:27;;;;;;;;;;;;;;;;;;4675335;28;20287;-66
2023/01/01 16:03:53;;;;;;;;;;;;;;;;;;4673751;28;20308;-64
2023/01/01 16:06:19;;;;;;;;;;;;;;;;;;4673113;28;20797;-65
2023/01/01 16:08:45;;;;;;;;;;;;;;;;;;4669814;28;20990;-63
2023/01/01 16:11:11;;;;;;;;;;;;;;;;;;4672343;28;20806;-64
2023/01/01 16:13:37;;;;;;;;;;;;;;;;;;4672600;28;20907;-64
2023/01/01 16:16:02;;;;;;;;;;;;;;;;;;4672726;28;20313;-65
2023/01/01 16:18:28;;;;;;;;;;;;;;;;;;4673014;28;20261;-63
2023/01/01 16:20:54;;;;;;;;;;;;;;;;;;4673384;28;20624;-65
2023/01/01 16:23:20;;;;;;;;;;;;;;;;;;4677261;28;20693;-65
2023/01/01 16:25:46;;;;;;;;;;;;;;;;;;4679856;28;20485;-65
2023/01/01 16:28:12;;;;;;;;;;;;;;;;;;4678331;28;20304;-65
2023/01/01 16:30:38;;;;;;;;;;;;;;;;;;4676881;28;20229;-65
2023/01/01 16:33:04;;;;;;;;;;;;;;;;;;4675203;28;20826;-64
2023/01/01 16:35:30;;;;;;;;;;;;;;;;;;4675089;28;20293;-64
2023/01/01 16:37:55;;;;;;;;;;;;;;;;;;4676524;28;20743;-63
2023/01/01 16:40:21;;;;;;;;;;;;;;;;;;4676291;28;20366;-64
2023/01/01 16:42:47;;;;;;;;;;;;;;;;;;4668594;28;20245;-64